sensor_id;sensor_type;location;lat;lon;timestamp;pressure;altitude;pressure_sealevel;temperature;humidity
41246;BME280;53880;47.526;18.986;2023-04-19T00:01:14;99716.22;;;20.94;51.65
41246;BME280;53880;47.526;18.986;2023-04-19T00:03:34;99709.22;;;20.93;52.07
41246;BME280;53880;47.526;18.986;2023-04-19T00:05:52;99716.09;;;20.96;51.33
41246;BME280;53880;47.526;18.986;2023-04-19T00:08:15;99705.38;;;20.96;51.64
41246;BME280;53880;47.526;18.986;2023-04-19T00:10:32;99701.00;;;20.95;51.47
41246;BME280;53880;47.526;18.986;2023-04-19T00:12:52;99709.88;;;20.95;51.42
41246;BME280;53880;47.526;18.986;2023-04-19T00:15:07;99700.16;;;20.94;51.49
41246;BME280;53880;47.526;18.986;2023-04-19T00:17:25;99702.84;;;20.94;51.68
41246;BME280;53880;47.526;18.986;2023-04-19T00:19:45;99696.69;;;20.94;51.33
41246;BME280;53880;47.526;18.986;2023-04-19T00:22:00;99700.16;;;20.94;51.40
41246;BME280;53880;47.526;18.986;2023-04-19T00:24:20;99698.50;;;20.93;51.32
41246;BME280;53880;47.526;18.986;2023-04-19T00:26:39;99696.81;;;20.92;51.66
41246;BME280;53880;47.526;18.986;2023-04-19T00:29:01;99697.66;;;20.93;51.33
41246;BME280;53880;47.526;18.986;2023-04-19T00:31:19;99689.81;;;20.91;51.63
41246;BME280;53880;47.526;18.986;2023-04-19T00:33:36;99695.16;;;20.91;51.79
41246;BME280;53880;47.526;18.986;2023-04-19T00:35:56;99690.63;;;20.92;51.45
41246;BME280;53880;47.526;18.986;2023-04-19T00:38:11;99684.59;;;20.90;51.52
41246;BME280;53880;47.526;18.986;2023-04-19T00:40:26;99687.94;;;20.92;52.28
41246;BME280;53880;47.526;18.986;2023-04-19T00:42:46;99686.28;;;20.91;52.07
41246;BME280;53880;47.526;18.986;2023-04-19T00:45:07;99689.81;;;20.91;51.84
41246;BME280;53880;47.526;18.986;2023-04-19T00:47:29;99687.13;;;20.91;51.95
41246;BME280;53880;47.526;18.986;2023-04-19T00:49:47;99680.94;;;20.91;51.92
41246;BME280;53880;47.526;18.986;2023-04-19T00:52:02;99689.63;;;20.93;52.04
41246;BME280;53880;47.526;18.986;2023-04-19T00:54:25;99681.59;;;20.93;52.06
41246;BME280;53880;47.526;18.986;2023-04-19T00:56:48;99685.13;;;20.93;51.82
41246;BME280;53880;47.526;18.986;2023-04-19T00:59:05;99681.59;;;20.93;51.85
41246;BME280;53880;47.526;18.986;2023-04-19T01:01:22;99673.56;;;20.93;51.92
41246;BME280;53880;47.526;18.986;2023-04-19T01:03:40;99674.41;;;20.93;51.75
41246;BME280;53880;47.526;18.986;2023-04-19T01:06:00;99674.41;;;20.93;51.69
41246;BME280;53880;47.526;18.986;2023-04-19T01:08:17;99677.94;;;20.94;51.96
41246;BME280;53880;47.526;18.986;2023-04-19T01:10:33;99672.56;;;20.94;52.02
41246;BME280;53880;47.526;18.986;2023-04-19T01:12:48;99669.91;;;20.94;51.72
41246;BME280;53880;47.526;18.986;2023-04-19T01:15:10;99667.22;;;20.94;51.75
41246;BME280;53880;47.526;18.986;2023-04-19T01:17:26;99665.53;;;20.93;51.92
41246;BME280;53880;47.526;18.986;2023-04-19T01:19:47;99656.66;;;20.92;51.28
41246;BME280;53880;47.526;18.986;2023-04-19T01:22:15;99662.00;;;20.92;51.91
41246;BME280;53880;47.526;18.986;2023-04-19T01:24:32;99650.63;;;20.90;51.78
41246;BME280;53880;47.526;18.986;2023-04-19T01:26:58;99659.50;;;20.91;51.56
41246;BME280;53880;47.526;18.986;2023-04-19T01:29:18;99653.31;;;20.90;51.59
41246;BME280;53880;47.526;18.986;2023-04-19T01:31:38;99647.13;;;20.90;51.68
41246;BME280;53880;47.526;18.986;2023-04-19T01:33:58;99650.81;;;20.89;51.48
41246;BME280;53880;47.526;18.986;2023-04-19T01:36:15;99640.94;;;20.89;51.67
41246;BME280;53880;47.526;18.986;2023-04-19T01:38:33;99642.78;;;20.89;51.57
41246;BME280;53880;47.526;18.986;2023-04-19T01:40:50;99640.94;;;20.89;51.73
41246;BME280;53880;47.526;18.986;2023-04-19T01:43:11;99640.09;;;20.89;51.80
41246;BME280;53880;47.526;18.986;2023-04-19T01:45:26;99633.06;;;20.88;51.73
41246;BME280;53880;47.526;18.986;2023-04-19T01:47:46;99640.09;;;20.89;51.63
41246;BME280;53880;47.526;18.986;2023-04-19T01:50:01;99633.91;;;20.88;51.53
41246;BME280;53880;47.526;18.986;2023-04-19T01:52:21;99632.25;;;20.87;51.56
41246;BME280;53880;47.526;18.986;2023-04-19T01:54:39;99631.22;;;20.88;52.09
41246;BME280;53880;47.526;18.986;2023-04-19T01:56:54;99630.38;;;20.88;51.54
41246;BME280;53880;47.526;18.986;2023-04-19T01:59:11;99632.25;;;20.87;51.64
41246;BME280;53880;47.526;18.986;2023-04-19T02:01:29;99627.88;;;20.86;51.58
41246;BME280;53880;47.526;18.986;2023-04-19T02:03:46;99623.56;;;20.85;51.80
41246;BME280;53880;47.526;18.986;2023-04-19T02:06:04;99628.91;;;20.85;52.04
41246;BME280;53880;47.526;18.986;2023-04-19T02:08:19;99624.38;;;20.86;52.20
41246;BME280;53880;47.526;18.986;2023-04-19T02:10:42;99620.88;;;20.85;51.55
41246;BME280;53880;47.526;18.986;2023-04-19T02:12:59;99616.50;;;20.84;51.89
41246;BME280;53880;47.526;18.986;2023-04-19T02:15:18;99611.34;;;20.83;51.89
41246;BME280;53880;47.526;18.986;2023-04-19T02:17:39;99615.66;;;20.84;51.61
41246;BME280;53880;47.526;18.986;2023-04-19T02:19:56;99617.50;;;20.83;52.03
41246;BME280;53880;47.526;18.986;2023-04-19T02:22:17;99617.50;;;20.83;51.69
41246;BME280;53880;47.526;18.986;2023-04-19T02:24:33;99620.19;;;20.83;51.86
41246;BME280;53880;47.526;18.986;2023-04-19T02:26:50;99615.84;;;20.82;51.77
41246;BME280;53880;47.526;18.986;2023-04-19T02:29:13;99613.16;;;20.82;53.06
41246;BME280;53880;47.526;18.986;2023-04-19T02:31:35;99610.50;;;20.82;52.77
41246;BME280;53880;47.526;18.986;2023-04-19T02:33:55;99607.81;;;20.82;53.25
41246;BME280;53880;47.526;18.986;2023-04-19T02:36:12;99604.47;;;20.80;53.09
41246;BME280;53880;47.526;18.986;2023-04-19T02:38:32;99599.13;;;20.80;53.14
41246;BME280;53880;47.526;18.986;2023-04-19T02:40:49;99593.94;;;20.79;52.84
41246;BME280;53880;47.526;18.986;2023-04-19T02:43:07;99600.94;;;20.80;52.53
41246;BME280;53880;47.526;18.986;2023-04-19T02:45:24;99587.56;;;20.80;52.39
41246;BME280;53880;47.526;18.986;2023-04-19T02:47:45;99586.72;;;20.79;52.93
41246;BME280;53880;47.526;18.986;2023-04-19T02:50:00;99596.63;;;20.79;52.06
41246;BME280;53880;47.526;18.986;2023-04-19T02:52:25;99586.72;;;20.79;52.12
41246;BME280;53880;47.526;18.986;2023-04-19T02:54:40;99592.91;;;20.80;51.77
41246;BME280;53880;47.526;18.986;2023-04-19T02:56:58;99586.72;;;20.79;52.23
41246;BME280;53880;47.526;18.986;2023-04-19T02:59:15;99584.88;;;20.80;52.74
41246;BME280;53880;47.526;18.986;2023-04-19T03:01:31;99582.38;;;20.78;52.73
41246;BME280;53880;47.526;18.986;2023-04-19T03:03:53;99574.34;;;20.78;52.94
41246;BME280;53880;47.526;18.986;2023-04-19T03:06:08;99577.88;;;20.79;52.20
41246;BME280;53880;47.526;18.986;2023-04-19T03:08:26;99581.38;;;20.79;52.85
41246;BME280;53880;47.526;18.986;2023-04-19T03:10:41;99574.34;;;20.78;52.12
41246;BME280;53880;47.526;18.986;2023-04-19T03:13:03;99569.00;;;20.78;51.90
41246;BME280;53880;47.526;18.986;2023-04-19T03:15:19;99570.00;;;20.77;52.43
41246;BME280;53880;47.526;18.986;2023-04-19T03:17:39;99559.28;;;20.77;52.36
41246;BME280;53880;47.526;18.986;2023-04-19T03:19:57;99562.81;;;20.78;51.91
41246;BME280;53880;47.526;18.986;2023-04-19T03:22:15;99565.66;;;20.76;52.22
41246;BME280;53880;47.526;18.986;2023-04-19T03:24:38;99556.78;;;20.76;52.56
41246;BME280;53880;47.526;18.986;2023-04-19T03:27:11;99553.09;;;20.77;52.14
41246;BME280;53880;47.526;18.986;2023-04-19T03:29:33;99556.78;;;20.76;52.04
41246;BME280;53880;47.526;18.986;2023-04-19T03:31:52;99554.97;;;20.76;52.46
41246;BME280;53880;47.526;18.986;2023-04-19T03:34:09;99559.47;;;20.76;52.28
41246;BME280;53880;47.526;18.986;2023-04-19T03:36:30;99555.94;;;20.75;52.26
41246;BME280;53880;47.526;18.986;2023-04-19T03:38:45;99553.28;;;20.75;52.05
41246;BME280;53880;47.526;18.986;2023-04-19T03:41:17;99555.09;;;20.75;52.51
41246;BME280;53880;47.526;18.986;2023-04-19T03:43:32;99556.97;;;20.74;52.58
41246;BME280;53880;47.526;18.986;2023-04-19T03:45:48;99558.81;;;20.74;52.06
41246;BME280;53880;47.526;18.986;2023-04-19T03:48:03;99556.97;;;20.74;52.54
41246;BME280;53880;47.526;18.986;2023-04-19T03:50:21;99555.28;;;20.73;52.80
41246;BME280;53880;47.526;18.986;2023-04-19T03:52:39;99559.78;;;20.73;52.69
41246;BME280;53880;47.526;18.986;2023-04-19T03:54:59;99555.47;;;20.72;52.70
41246;BME280;53880;47.526;18.986;2023-04-19T03:57:27;99559.97;;;20.71;52.67
41246;BME280;53880;47.526;18.986;2023-04-19T03:59:47;99558.16;;;20.72;52.83
41246;BME280;53880;47.526;18.986;2023-04-19T04:02:06;99556.47;;;20.71;52.78
41246;BME280;53880;47.526;18.986;2023-04-19T04:04:27;99547.63;;;20.70;52.75
41246;BME280;53880;47.526;18.986;2023-04-19T04:06:45;99554.81;;;20.70;52.79
41246;BME280;53880;47.526;18.986;2023-04-19T04:09:05;99545.09;;;20.69;52.23
41246;BME280;53880;47.526;18.986;2023-04-19T04:11:20;99552.13;;;20.70;52.76
41246;BME280;53880;47.526;18.986;2023-04-19T04:13:37;99549.44;;;20.70;52.93
41246;BME280;53880;47.526;18.986;2023-04-19T04:16:08;99553.78;;;20.71;52.45
41246;BME280;53880;47.526;18.986;2023-04-19T04:18:26;99552.13;;;20.70;52.18
41246;BME280;53880;47.526;18.986;2023-04-19T04:20:49;99542.41;;;20.69;52.55
41246;BME280;53880;47.526;18.986;2023-04-19T04:23:05;99552.13;;;20.70;52.33
41246;BME280;53880;47.526;18.986;2023-04-19T04:25:28;99545.09;;;20.69;52.36
41246;BME280;53880;47.526;18.986;2023-04-19T04:27:49;99541.41;;;20.70;52.27
41246;BME280;53880;47.526;18.986;2023-04-19T04:30:08;99551.94;;;20.71;52.34
41246;BME280;53880;47.526;18.986;2023-04-19T04:32:24;99543.91;;;20.71;52.21
41246;BME280;53880;47.526;18.986;2023-04-19T04:34:46;99543.06;;;20.71;52.26
41246;BME280;53880;47.526;18.986;2023-04-19T04:37:15;99546.59;;;20.71;52.08
41246;BME280;53880;47.526;18.986;2023-04-19T04:39:34;99548.59;;;20.69;52.76
41246;BME280;53880;47.526;18.986;2023-04-19T04:41:53;99548.59;;;20.69;52.29
41246;BME280;53880;47.526;18.986;2023-04-19T04:44:11;99545.94;;;20.69;52.33
41246;BME280;53880;47.526;18.986;2023-04-19T04:46:31;99541.41;;;20.70;52.63
41246;BME280;53880;47.526;18.986;2023-04-19T04:48:53;99543.25;;;20.69;52.72
41246;BME280;53880;47.526;18.986;2023-04-19T04:51:10;99544.94;;;20.70;52.41
41246;BME280;53880;47.526;18.986;2023-04-19T04:53:26;99541.25;;;20.71;53.53
41246;BME280;53880;47.526;18.986;2023-04-19T04:55:45;99545.75;;;20.71;53.41
41246;BME280;53880;47.526;18.986;2023-04-19T04:58:07;99545.75;;;20.71;53.11
41246;BME280;53880;47.526;18.986;2023-04-19T05:00:51;99535.69;;;20.73;53.18
41246;BME280;53880;47.526;18.986;2023-04-19T05:03:08;99538.38;;;20.73;53.31
41246;BME280;53880;47.526;18.986;2023-04-19T05:05:38;99534.72;;;20.74;53.71
41246;BME280;53880;47.526;18.986;2023-04-19T05:07:55;99538.91;;;20.76;53.27
41246;BME280;53880;47.526;18.986;2023-04-19T05:10:13;99532.38;;;20.79;53.67
41246;BME280;53880;47.526;18.986;2023-04-19T05:12:33;99533.69;;;20.83;53.57
41246;BME280;53880;47.526;18.986;2023-04-19T05:14:48;99534.81;;;20.88;53.26
41246;BME280;53880;47.526;18.986;2023-04-19T05:17:05;99534.97;;;20.95;53.25
41246;BME280;53880;47.526;18.986;2023-04-19T05:19:23;99535.31;;;21.00;53.11
41246;BME280;53880;47.526;18.986;2023-04-19T05:21:49;99537.97;;;21.08;52.58
41246;BME280;53880;47.526;18.986;2023-04-19T05:24:05;99535.44;;;21.14;52.62
41246;BME280;53880;47.526;18.986;2023-04-19T05:26:24;99535.41;;;21.22;52.53
41246;BME280;53880;47.526;18.986;2023-04-19T05:28:43;99531.84;;;21.30;52.25
41246;BME280;53880;47.526;18.986;2023-04-19T05:31:07;99537.16;;;21.38;52.29
41246;BME280;53880;47.526;18.986;2023-04-19T05:33:31;99531.94;;;21.45;52.19
41246;BME280;53880;47.526;18.986;2023-04-19T05:35:46;99532.72;;;21.53;52.06
41246;BME280;53880;47.526;18.986;2023-04-19T05:38:04;99529.53;;;21.58;51.57
41246;BME280;53880;47.526;18.986;2023-04-19T05:40:23;99533.00;;;21.66;51.61
41246;BME280;53880;47.526;18.986;2023-04-19T05:42:42;99526.91;;;21.72;51.62
41246;BME280;53880;47.526;18.986;2023-04-19T05:45:03;99526.38;;;21.77;52.29
41246;BME280;53880;47.526;18.986;2023-04-19T05:47:18;99531.22;;;21.81;52.42
41246;BME280;53880;47.526;18.986;2023-04-19T05:50:05;99529.88;;;21.85;52.36
41246;BME280;53880;47.526;18.986;2023-04-19T05:52:26;99532.22;;;21.88;52.84
41246;BME280;53880;47.526;18.986;2023-04-19T05:54:43;99524.81;;;21.90;52.57
41246;BME280;53880;47.526;18.986;2023-04-19T05:57:05;99517.78;;;21.89;52.97
41246;BME280;53880;47.526;18.986;2023-04-19T05:59:22;99520.44;;;21.89;52.87
41246;BME280;53880;47.526;18.986;2023-04-19T06:01:42;99516.28;;;21.87;52.65
41246;BME280;53880;47.526;18.986;2023-04-19T06:04:04;99522.28;;;21.89;52.96
41246;BME280;53880;47.526;18.986;2023-04-19T06:06:22;99516.94;;;21.89;52.82
41246;BME280;53880;47.526;18.986;2023-04-19T06:08:42;99515.09;;;21.89;52.60
41246;BME280;53880;47.526;18.986;2023-04-19T06:11:05;99527.66;;;21.89;52.70
41246;BME280;53880;47.526;18.986;2023-04-19T06:13:20;99525.81;;;21.89;52.39
41246;BME280;53880;47.526;18.986;2023-04-19T06:15:35;99516.28;;;21.87;52.91
41246;BME280;53880;47.526;18.986;2023-04-19T06:17:50;99520.16;;;21.84;53.01
41246;BME280;53880;47.526;18.986;2023-04-19T06:20:08;99525.53;;;21.84;53.17
41246;BME280;53880;47.526;18.986;2023-04-19T06:22:26;99518.66;;;21.82;52.63
41246;BME280;53880;47.526;18.986;2023-04-19T06:24:47;99515.13;;;21.81;52.44
41246;BME280;53880;47.526;18.986;2023-04-19T06:27:02;99518.81;;;21.80;52.33
41246;BME280;53880;47.526;18.986;2023-04-19T06:29:20;99513.63;;;21.79;52.32
41246;BME280;53880;47.526;18.986;2023-04-19T06:31:37;99514.66;;;21.78;52.33
41246;BME280;53880;47.526;18.986;2023-04-19T06:33:55;99507.59;;;21.77;52.74
41246;BME280;53880;47.526;18.986;2023-04-19T06:36:14;99508.63;;;21.76;52.48
41246;BME280;53880;47.526;18.986;2023-04-19T06:38:34;99501.59;;;21.75;52.15
41246;BME280;53880;47.526;18.986;2023-04-19T06:40:54;99499.91;;;21.74;52.00
41246;BME280;53880;47.526;18.986;2023-04-19T06:43:14;99499.91;;;21.74;52.25
41246;BME280;53880;47.526;18.986;2023-04-19T06:45:31;99493.75;;;21.73;52.05
41246;BME280;53880;47.526;18.986;2023-04-19T06:47:47;99496.56;;;21.72;52.02
41246;BME280;53880;47.526;18.986;2023-04-19T06:50:07;99494.72;;;21.72;52.24
41246;BME280;53880;47.526;18.986;2023-04-19T06:52:22;99493.09;;;21.71;52.03
41246;BME280;53880;47.526;18.986;2023-04-19T06:54:45;99495.75;;;21.71;52.47
41246;BME280;53880;47.526;18.986;2023-04-19T06:57:08;99490.41;;;21.71;53.40
41246;BME280;53880;47.526;18.986;2023-04-19T06:59:23;99492.06;;;21.72;52.39
41246;BME280;53880;47.526;18.986;2023-04-19T07:01:47;99492.06;;;21.72;52.27
41246;BME280;53880;47.526;18.986;2023-04-19T07:04:04;99494.41;;;21.75;52.63
41246;BME280;53880;47.526;18.986;2023-04-19T07:06:22;99488.00;;;21.76;52.17
41246;BME280;53880;47.526;18.986;2023-04-19T07:08:39;99487.84;;;21.78;52.08
41246;BME280;53880;47.526;18.986;2023-04-19T07:10:59;99484.13;;;21.79;52.34
41246;BME280;53880;47.526;18.986;2023-04-19T07:13:21;99483.13;;;21.80;51.94
41246;BME280;53880;47.526;18.986;2023-04-19T07:15:39;99489.16;;;21.82;52.24
41246;BME280;53880;47.526;18.986;2023-04-19T07:18:01;99484.47;;;21.84;52.47
41246;BME280;53880;47.526;18.986;2023-04-19T07:20:21;99474.59;;;21.84;52.76
41246;BME280;53880;47.526;18.986;2023-04-19T07:22:39;99478.06;;;21.85;52.67
41246;BME280;53880;47.526;18.986;2023-04-19T07:24:57;99478.25;;;21.83;52.55
41246;BME280;53880;47.526;18.986;2023-04-19T07:27:14;99472.22;;;21.81;51.70
41246;BME280;53880;47.526;18.986;2023-04-19T07:29:33;99477.59;;;21.81;51.25
41246;BME280;53880;47.526;18.986;2023-04-19T07:31:53;99478.56;;;21.80;50.74
41246;BME280;53880;47.526;18.986;2023-04-19T07:34:14;99474.25;;;21.79;50.63
41246;BME280;53880;47.526;18.986;2023-04-19T07:36:34;99476.09;;;21.79;50.55
41246;BME280;53880;47.526;18.986;2023-04-19T07:38:51;99474.25;;;21.79;50.34
41246;BME280;53880;47.526;18.986;2023-04-19T07:41:09;99470.91;;;21.77;50.00
41246;BME280;53880;47.526;18.986;2023-04-19T07:43:24;99464.72;;;21.77;50.18
41246;BME280;53880;47.526;18.986;2023-04-19T07:45:40;99470.91;;;21.77;49.99
41246;BME280;53880;47.526;18.986;2023-04-19T07:48:02;99464.72;;;21.77;50.09
41246;BME280;53880;47.526;18.986;2023-04-19T07:50:17;99462.22;;;21.75;49.86
41246;BME280;53880;47.526;18.986;2023-04-19T07:52:37;99466.75;;;21.75;49.67
41246;BME280;53880;47.526;18.986;2023-04-19T07:54:57;99468.75;;;21.73;49.35
41246;BME280;53880;47.526;18.986;2023-04-19T07:57:17;99467.75;;;21.74;49.53
41246;BME280;53880;47.526;18.986;2023-04-19T07:59:37;99473.28;;;21.72;49.84
41246;BME280;53880;47.526;18.986;2023-04-19T08:01:58;99467.94;;;21.72;49.71
41246;BME280;53880;47.526;18.986;2023-04-19T08:04:15;99460.91;;;21.71;49.38
41246;BME280;53880;47.526;18.986;2023-04-19T08:06:38;99465.63;;;21.69;48.90
41246;BME280;53880;47.526;18.986;2023-04-19T08:08:55;99474.19;;;21.65;49.15
41246;BME280;53880;47.526;18.986;2023-04-19T08:11:16;99471.03;;;21.61;49.60
41246;BME280;53880;47.526;18.986;2023-04-19T08:13:33;99469.66;;;21.65;48.81
41246;BME280;53880;47.526;18.986;2023-04-19T08:15:53;99467.63;;;21.67;49.24
41246;BME280;53880;47.526;18.986;2023-04-19T08:18:13;99469.66;;;21.65;48.82
41246;BME280;53880;47.526;18.986;2023-04-19T08:20:31;99464.47;;;21.64;48.22
41246;BME280;53880;47.526;18.986;2023-04-19T08:22:49;99466.16;;;21.65;48.29
41246;BME280;53880;47.526;18.986;2023-04-19T08:25:05;99462.81;;;21.63;48.56
41246;BME280;53880;47.526;18.986;2023-04-19T08:27:23;99464.66;;;21.62;48.24
41246;BME280;53880;47.526;18.986;2023-04-19T08:29:45;99463.16;;;21.60;48.37
41246;BME280;53880;47.526;18.986;2023-04-19T08:32:06;99457.63;;;21.61;48.56
41246;BME280;53880;47.526;18.986;2023-04-19T08:34:23;99461.97;;;21.62;49.05
41246;BME280;53880;47.526;18.986;2023-04-19T08:36:43;99450.41;;;21.62;48.47
41246;BME280;53880;47.526;18.986;2023-04-19T08:39:02;99452.44;;;21.60;47.85
41246;BME280;53880;47.526;18.986;2023-04-19T08:41:17;99455.66;;;21.55;47.92
41246;BME280;53880;47.526;18.986;2023-04-19T08:43:36;99452.66;;;21.50;47.43
41246;BME280;53880;47.526;18.986;2023-04-19T08:45:52;99449.72;;;21.45;47.70
41246;BME280;53880;47.526;18.986;2023-04-19T08:48:14;99453.09;;;21.39;47.54
41246;BME280;53880;47.526;18.986;2023-04-19T08:50:29;99459.78;;;21.35;48.31
41246;BME280;53880;47.526;18.986;2023-04-19T08:52:49;99446.25;;;21.37;47.79
41246;BME280;53880;47.526;18.986;2023-04-19T08:55:10;99450.28;;;21.33;46.99
41246;BME280;53880;47.526;18.986;2023-04-19T08:57:30;99444.63;;;21.27;44.85
41246;BME280;53880;47.526;18.986;2023-04-19T08:59:47;99447.19;;;21.21;43.48
41246;BME280;53880;47.526;18.986;2023-04-19T09:02:06;99450.38;;;21.16;42.96
41246;BME280;53880;47.526;18.986;2023-04-19T09:04:24;99447.69;;;21.16;42.78
41246;BME280;53880;47.526;18.986;2023-04-19T09:06:42;99441.50;;;21.16;42.69
41246;BME280;53880;47.526;18.986;2023-04-19T09:09:27;99446.16;;;21.22;43.61
41246;BME280;53880;47.526;18.986;2023-04-19T09:11:43;99436.78;;;21.26;44.72
41246;BME280;53880;47.526;18.986;2023-04-19T09:14:10;99445.41;;;21.36;44.08
41246;BME280;53880;47.526;18.986;2023-04-19T09:16:25;99444.81;;;21.49;44.25
41246;BME280;53880;47.526;18.986;2023-04-19T09:18:56;99431.84;;;21.60;44.23
41246;BME280;53880;47.526;18.986;2023-04-19T09:21:29;99436.41;;;21.74;44.31
41246;BME280;53880;47.526;18.986;2023-04-19T09:23:48;99429.16;;;21.83;44.70
41246;BME280;53880;47.526;18.986;2023-04-19T09:26:06;99424.41;;;21.93;44.47
41246;BME280;53880;47.526;18.986;2023-04-19T09:28:23;99425.31;;;22.00;45.40
41246;BME280;53880;47.526;18.986;2023-04-19T09:30:41;99425.59;;;22.05;45.21
41246;BME280;53880;47.526;18.986;2023-04-19T09:32:59;99415.34;;;22.09;45.94
41246;BME280;53880;47.526;18.986;2023-04-19T09:35:19;99412.09;;;22.13;45.95
41246;BME280;53880;47.526;18.986;2023-04-19T09:37:36;99412.75;;;22.15;46.54
41246;BME280;53880;47.526;18.986;2023-04-19T09:39:58;99412.59;;;22.17;46.29
41246;BME280;53880;47.526;18.986;2023-04-19T09:42:21;99412.41;;;22.18;46.14
41246;BME280;53880;47.526;18.986;2023-04-19T09:44:36;99409.53;;;22.20;46.76
41246;BME280;53880;47.526;18.986;2023-04-19T09:46:54;99410.56;;;22.19;46.54
41246;BME280;53880;47.526;18.986;2023-04-19T09:51:40;99409.53;;;22.20;46.82
41246;BME280;53880;47.526;18.986;2023-04-19T09:53:57;99409.72;;;22.18;45.96
41246;BME280;53880;47.526;18.986;2023-04-19T09:56:13;99410.72;;;22.17;45.82
41246;BME280;53880;47.526;18.986;2023-04-19T09:58:28;99410.06;;;22.15;45.66
41246;BME280;53880;47.526;18.986;2023-04-19T10:00:48;99402.22;;;22.14;45.82
41246;BME280;53880;47.526;18.986;2023-04-19T10:03:08;99408.78;;;22.11;45.61
41246;BME280;53880;47.526;18.986;2023-04-19T10:05:26;99402.75;;;22.09;46.46
41246;BME280;53880;47.526;18.986;2023-04-19T10:07:42;99410.34;;;22.06;45.38
41246;BME280;53880;47.526;18.986;2023-04-19T10:09:58;99413.38;;;22.02;45.64
41246;BME280;53880;47.526;18.986;2023-04-19T10:12:23;99411.09;;;21.99;45.32
41246;BME280;53880;47.526;18.986;2023-04-19T10:14:43;99410.41;;;21.97;45.93
41246;BME280;53880;47.526;18.986;2023-04-19T10:17:00;99406.06;;;21.96;46.29
41246;BME280;53880;47.526;18.986;2023-04-19T10:19:19;99403.75;;;21.93;47.10
41246;BME280;53880;47.526;18.986;2023-04-19T10:21:36;99410.59;;;21.96;46.46
41246;BME280;53880;47.526;18.986;2023-04-19T10:23:53;99407.06;;;21.95;46.94
41246;BME280;53880;47.526;18.986;2023-04-19T10:26:09;99406.44;;;21.93;47.08
41246;BME280;53880;47.526;18.986;2023-04-19T10:28:29;99402.94;;;21.93;46.97
41246;BME280;53880;47.526;18.986;2023-04-19T10:31:13;99402.44;;;21.89;47.32
41246;BME280;53880;47.526;18.986;2023-04-19T10:33:40;99403.28;;;21.90;47.56
41246;BME280;53880;47.526;18.986;2023-04-19T10:35:56;99399.59;;;21.91;47.79
41246;BME280;53880;47.526;18.986;2023-04-19T10:38:13;99394.25;;;21.91;48.32
41246;BME280;53880;47.526;18.986;2023-04-19T10:40:57;99390.34;;;21.93;48.08
41246;BME280;53880;47.526;18.986;2023-04-19T10:43:15;99381.63;;;21.91;48.26
41246;BME280;53880;47.526;18.986;2023-04-19T10:47:55;99388.94;;;21.83;48.04
41246;BME280;53880;47.526;18.986;2023-04-19T10:50:13;99397.13;;;21.81;47.95
41246;BME280;53880;47.526;18.986;2023-04-19T10:52:34;99390.47;;;21.77;48.03
41246;BME280;53880;47.526;18.986;2023-04-19T10:54:55;99389.16;;;21.73;48.28
41246;BME280;53880;47.526;18.986;2023-04-19T10:57:15;99383.31;;;21.70;48.34
41246;BME280;53880;47.526;18.986;2023-04-19T10:59:32;99388.69;;;21.70;48.38
41246;BME280;53880;47.526;18.986;2023-04-19T11:01:59;99385.34;;;21.68;48.46
41246;BME280;53880;47.526;18.986;2023-04-19T11:09:09;99394.78;;;21.64;48.73
41246;BME280;53880;47.526;18.986;2023-04-19T11:11:28;99381.38;;;21.64;48.89
41246;BME280;53880;47.526;18.986;2023-04-19T11:13:49;99395.81;;;21.63;48.99
41246;BME280;53880;47.526;18.986;2023-04-19T11:16:09;99394.97;;;21.62;48.95
41246;BME280;53880;47.526;18.986;2023-04-19T11:18:28;99399.66;;;21.60;49.29
41246;BME280;53880;47.526;18.986;2023-04-19T11:20:44;99393.47;;;21.60;49.41
41246;BME280;53880;47.526;18.986;2023-04-19T11:23:01;99394.47;;;21.59;49.37
41246;BME280;53880;47.526;18.986;2023-04-19T11:25:22;99391.97;;;21.57;49.40
41246;BME280;53880;47.526;18.986;2023-04-19T11:27:47;99387.66;;;21.56;49.49
41246;BME280;53880;47.526;18.986;2023-04-19T11:30:14;99390.78;;;21.60;50.05
41246;BME280;53880;47.526;18.986;2023-04-19T11:32:36;99395.19;;;21.75;52.28
41246;BME280;53880;47.526;18.986;2023-04-19T11:34:57;99390.78;;;21.82;51.98
41246;BME280;53880;47.526;18.986;2023-04-19T11:37:31;99388.78;;;21.84;52.01
41246;BME280;53880;47.526;18.986;2023-04-19T11:39:46;99389.41;;;21.86;52.16
41246;BME280;53880;47.526;18.986;2023-04-19T11:42:06;99385.25;;;21.84;51.38
41246;BME280;53880;47.526;18.986;2023-04-19T11:44:32;99391.78;;;21.81;51.02
41246;BME280;53880;47.526;18.986;2023-04-19T11:47:01;99383.91;;;21.80;51.28
41246;BME280;53880;47.526;18.986;2023-04-19T11:49:30;99382.25;;;21.79;51.13
41246;BME280;53880;47.526;18.986;2023-04-19T11:51:54;99381.41;;;21.78;51.53
41246;BME280;53880;47.526;18.986;2023-04-19T11:54:14;99378.06;;;21.76;52.68
41246;BME280;53880;47.526;18.986;2023-04-19T11:56:33;99378.69;;;21.86;52.21
41246;BME280;53880;47.526;18.986;2023-04-19T11:58:50;99367.59;;;21.89;52.39
41246;BME280;53880;47.526;18.986;2023-04-19T12:03:27;99375.38;;;21.99;52.44
41246;BME280;53880;47.526;18.986;2023-04-19T12:05:57;99369.19;;;21.98;52.48
41246;BME280;53880;47.526;18.986;2023-04-19T12:08:28;99368.19;;;21.99;52.30
41246;BME280;53880;47.526;18.986;2023-04-19T12:10:59;99373.53;;;21.99;52.38
41246;BME280;53880;47.526;18.986;2023-04-19T12:13:19;99378.53;;;22.02;52.44
41246;BME280;53880;47.526;18.986;2023-04-19T12:18:03;99370.13;;;22.06;51.41
41246;BME280;53880;47.526;18.986;2023-04-19T12:20:33;99362.91;;;22.06;51.20
41246;BME280;53880;47.526;18.986;2023-04-19T12:22:50;99369.91;;;22.07;51.14
41246;BME280;53880;47.526;18.986;2023-04-19T12:25:08;99362.06;;;22.06;50.68